createdAt,value
2023-01-13T00:01:17.761Z,86.23
2023-01-13T00:03:44.855Z,85.95
2023-01-13T00:06:16.842Z,86.06
2023-01-13T00:08:43.827Z,86.23
2023-01-13T00:11:11.659Z,86.39
2023-01-13T00:13:39.279Z,85.98
2023-01-13T00:16:10.539Z,85.64
2023-01-13T00:18:37.654Z,85.30
2023-01-13T00:21:31.982Z,85.44
2023-01-13T00:23:59.455Z,85.52
2023-01-13T00:26:27.835Z,85.83
2023-01-13T00:28:58.911Z,85.69
2023-01-13T00:31:26.589Z,85.28
2023-01-13T00:33:53.902Z,85.00
2023-01-13T00:36:21.006Z,85.04
2023-01-13T00:38:48.220Z,84.95
2023-01-13T00:41:19.581Z,85.26
2023-01-13T00:43:46.968Z,85.13
2023-01-13T00:46:16.444Z,84.60
2023-01-13T00:48:43.462Z,84.44
2023-01-13T00:51:18.426Z,84.68
2023-01-13T00:53:47.087Z,84.46
2023-01-13T00:56:16.704Z,84.39
2023-01-13T00:58:45.598Z,84.74
2023-01-13T01:01:18.140Z,84.77
2023-01-13T01:03:47.870Z,84.52
2023-01-13T01:06:19.247Z,84.25
2023-01-13T01:08:46.200Z,84.07
2023-01-13T01:11:18.115Z,84.04
2023-01-13T01:13:45.174Z,84.08
2023-01-13T01:16:14.717Z,84.43
2023-01-13T01:18:43.289Z,84.29
2023-01-13T01:21:10.408Z,84.00
2023-01-13T01:23:38.411Z,84.00
2023-01-13T01:26:07.677Z,83.79
2023-01-13T01:28:35.140Z,83.71
2023-01-13T01:31:13.473Z,83.68
2023-01-13T01:33:43.410Z,83.72
2023-01-13T01:36:11.588Z,83.64
2023-01-13T01:38:38.655Z,83.66
2023-01-13T01:41:05.927Z,83.80
2023-01-13T01:44:08.328Z,83.72
2023-01-13T01:46:40.216Z,83.28
2023-01-13T01:49:13.148Z,82.95
2023-01-13T01:51:50.542Z,82.99
2023-01-13T01:54:20.495Z,83.10
2023-01-13T01:56:47.536Z,83.16
2023-01-13T01:59:14.556Z,83.58
2023-01-13T02:01:41.843Z,83.72
2023-01-13T02:04:17.287Z,83.54
2023-01-13T05:30:57.317Z,91.62
2023-01-13T05:33:24.380Z,89.69
2023-01-13T05:35:51.254Z,89.87
2023-01-13T05:38:18.863Z,89.58
2023-01-13T05:41:04.595Z,89.57
2023-01-13T05:43:33.114Z,89.39
2023-01-13T05:46:01.974Z,89.41
2023-01-13T05:48:36.953Z,89.64
2023-01-13T05:51:04.938Z,89.82
2023-01-13T05:53:32.072Z,89.53
2023-01-13T05:55:59.118Z,89.35
2023-01-13T05:58:27.033Z,89.32
2023-01-13T06:00:54.187Z,89.51
2023-01-13T06:03:21.140Z,89.51
2023-01-13T06:05:48.264Z,89.17
2023-01-13T06:08:15.366Z,88.99
2023-01-13T06:10:42.338Z,88.88
2023-01-13T06:13:09.338Z,88.79
2023-01-13T06:15:36.239Z,89.01
2023-01-13T06:18:04.247Z,88.83
2023-01-13T06:20:31.437Z,88.49
2023-01-13T06:22:58.439Z,88.28
2023-01-13T06:25:39.844Z,88.02
2023-01-13T06:28:06.736Z,87.95
2023-01-13T06:30:38.888Z,87.85
2023-01-13T06:33:09.012Z,87.56
2023-01-13T06:35:36.351Z,87.15
2023-01-13T06:38:04.135Z,86.94
2023-01-13T06:40:31.116Z,86.89
2023-01-13T06:43:17.122Z,87.06
2023-01-13T06:45:52.744Z,87.15
2023-01-13T06:48:21.948Z,87.49
2023-01-13T06:50:48.854Z,87.62
2023-01-13T06:53:15.978Z,87.49
2023-01-13T06:55:42.862Z,87.28
2023-01-13T06:58:09.753Z,87.26
2023-01-13T07:00:37.539Z,87.36
2023-01-13T07:03:14.939Z,87.19
2023-01-13T07:05:43.064Z,87.22
2023-01-13T07:14:35.491Z,86.62
2023-01-13T07:17:04.815Z,86.75
2023-01-13T07:19:31.682Z,86.76
2023-01-13T07:21:58.553Z,86.69
2023-01-13T07:24:25.620Z,86.49
2023-01-13T07:26:52.778Z,86.53
2023-01-13T07:29:19.829Z,86.61
2023-01-13T07:31:49.681Z,86.73
2023-01-13T07:34:16.944Z,86.96
2023-01-13T07:36:43.870Z,86.77
2023-01-13T07:39:10.865Z,86.70
2023-01-13T07:41:56.547Z,86.74
2023-01-13T07:44:23.486Z,86.83
2023-01-13T07:46:50.392Z,86.92
2023-01-13T07:49:17.288Z,86.75
2023-01-13T07:51:44.266Z,86.36
2023-01-13T07:54:11.279Z,86.27
2023-01-13T07:56:38.302Z,86.36
2023-01-13T07:59:05.293Z,86.64
2023-01-13T08:01:32.364Z,86.71
2023-01-13T08:03:59.492Z,86.33
2023-01-13T08:06:26.653Z,86.06
2023-01-13T08:08:54.708Z,85.93
2023-01-13T08:11:23.472Z,85.93
2023-01-13T08:13:50.773Z,86.17
2023-01-13T08:16:17.794Z,86.51
2023-01-13T08:18:44.777Z,86.76
2023-01-13T08:21:15.307Z,86.75
2023-01-13T08:23:43.080Z,86.62
2023-01-13T08:26:11.839Z,86.60
2023-01-13T08:28:40.637Z,86.75
2023-01-13T08:31:12.096Z,86.65
2023-01-13T08:33:39.211Z,86.29
2023-01-13T08:36:10.180Z,86.11
2023-01-13T08:38:37.694Z,86.27
2023-01-13T08:41:16.340Z,86.49
2023-01-13T08:43:43.985Z,86.43
2023-01-13T08:46:12.644Z,86.50
2023-01-13T08:48:43.663Z,86.49
2023-01-13T08:51:13.726Z,86.27
2023-01-13T08:53:40.645Z,86.16
2023-01-13T08:56:11.950Z,86.13
2023-01-13T08:58:39.306Z,86.08
2023-01-13T09:01:07.361Z,86.08
2023-01-13T09:03:34.514Z,86.11
2023-01-13T09:06:01.464Z,85.65
2023-01-13T09:08:28.422Z,85.65
2023-01-13T09:10:55.522Z,85.47
2023-01-13T09:13:22.432Z,85.25
2023-01-13T09:15:49.745Z,85.25
2023-01-13T09:18:16.685Z,85.35
2023-01-13T09:20:44.675Z,85.32
2023-01-13T09:23:11.760Z,85.34
2023-01-13T09:25:39.113Z,85.35
2023-01-13T09:28:06.286Z,84.99
2023-01-13T09:30:33.587Z,84.72
2023-01-13T09:33:19.439Z,84.48
2023-01-13T09:35:46.382Z,84.39
2023-01-13T09:38:13.185Z,84.30
2023-01-13T09:40:41.348Z,84.71
2023-01-13T09:43:34.593Z,85.01
2023-01-13T09:46:44.591Z,85.12
2023-01-13T09:49:20.400Z,84.70
2023-01-13T09:52:23.654Z,84.68
2023-01-13T09:54:56.105Z,84.87
2023-01-13T09:57:24.941Z,84.69
2023-01-13T09:59:51.915Z,84.80
2023-01-13T10:02:31.010Z,84.97
2023-01-13T14:34:32.498Z,95.41
2023-01-13T14:37:01.513Z,92.98
2023-01-13T14:39:40.403Z,92.71
2023-01-13T14:42:13.714Z,92.92
2023-01-13T14:44:44.773Z,93.04
2023-01-13T14:47:32.434Z,92.85
2023-01-13T14:50:31.598Z,92.49
2023-01-13T14:53:00.525Z,92.40
2023-01-13T14:55:34.667Z,92.50
2023-01-13T14:58:34.101Z,92.26
2023-01-13T15:01:30.027Z,92.04
2023-01-13T15:04:18.527Z,92.16
2023-01-13T15:06:46.858Z,92.31
2023-01-13T15:09:18.972Z,92.39
2023-01-13T15:11:47.755Z,92.19
2023-01-13T15:14:15.991Z,91.89
2023-01-13T15:16:42.854Z,91.56
2023-01-13T15:19:09.790Z,91.51
2023-01-13T15:21:42.696Z,91.54
2023-01-13T15:24:10.121Z,91.56
2023-01-13T15:26:37.633Z,91.30
2023-01-13T15:29:05.448Z,91.14
2023-01-13T15:31:32.992Z,91.04
2023-01-13T15:34:00.960Z,91.33
2023-01-13T15:36:29.835Z,91.36
2023-01-13T15:38:57.020Z,91.36
2023-01-13T15:41:42.791Z,91.29
2023-01-13T15:44:32.662Z,91.21
2023-01-13T15:47:01.188Z,91.40
2023-01-13T15:49:35.323Z,91.52
2023-01-13T15:52:04.429Z,91.57
2023-01-13T15:54:31.539Z,91.32
2023-01-13T15:56:58.446Z,91.00
2023-01-13T15:59:27.821Z,91.11
2023-01-13T16:01:56.475Z,91.07
2023-01-13T16:04:23.758Z,91.15
2023-01-13T16:06:52.288Z,90.96
2023-01-13T16:15:32.572Z,90.39
2023-01-13T16:18:01.199Z,90.48
2023-01-13T16:20:28.126Z,90.29
2023-01-13T16:22:56.197Z,90.14
2023-01-13T16:25:25.256Z,89.81
2023-01-13T16:27:54.947Z,89.81
2023-01-13T16:30:35.864Z,89.91
2023-01-13T16:33:03.407Z,90.04
2023-01-13T16:35:36.597Z,90.04
2023-01-13T16:38:23.551Z,89.71
2023-01-13T16:40:52.450Z,89.49
2023-01-13T16:43:19.821Z,89.55
2023-01-13T16:45:47.269Z,89.82
2023-01-13T16:48:19.053Z,89.90
2023-01-13T16:50:46.012Z,89.72
2023-01-13T16:53:12.896Z,89.57
2023-01-13T16:55:40.317Z,89.56
2023-01-13T16:58:07.697Z,89.57
2023-01-13T17:00:34.577Z,89.56
2023-01-13T17:03:02.884Z,89.50
2023-01-13T17:05:29.808Z,89.19
2023-01-13T17:07:57.587Z,89.10
2023-01-13T17:10:24.911Z,89.28
2023-01-13T17:12:51.934Z,89.32
2023-01-13T17:15:21.339Z,89.28
2023-01-13T17:17:52.250Z,89.32
2023-01-13T17:20:19.487Z,89.11
2023-01-13T17:22:49.715Z,88.84
2023-01-13T17:25:21.930Z,88.95
2023-01-13T17:27:48.933Z,89.05
2023-01-13T17:30:15.809Z,89.23
2023-01-13T17:32:42.699Z,89.28
2023-01-13T17:35:11.031Z,89.13
2023-01-13T17:37:38.103Z,89.09
2023-01-13T17:40:05.596Z,89.07
2023-01-13T17:42:32.605Z,89.31
2023-01-13T17:44:59.511Z,89.45
2023-01-13T17:47:28.865Z,89.46
2023-01-13T17:49:59.353Z,89.23
2023-01-13T17:52:26.303Z,89.19
2023-01-13T17:54:54.725Z,89.18
2023-01-13T17:57:25.400Z,89.17
2023-01-13T17:59:52.242Z,89.16
2023-01-13T18:02:19.269Z,89.03
2023-01-13T18:04:47.895Z,88.54
2023-01-13T21:20:04.220Z,94.10
2023-01-13T21:22:31.639Z,92.04
2023-01-13T21:24:58.857Z,92.01
2023-01-13T21:27:25.869Z,92.23
2023-01-13T21:29:52.871Z,92.56
2023-01-13T21:32:19.944Z,92.52
2023-01-13T21:34:46.823Z,92.25
2023-01-13T21:37:15.424Z,92.08
2023-01-13T21:39:43.162Z,92.09
2023-01-13T21:42:32.314Z,92.30
2023-01-13T21:45:18.168Z,92.09
2023-01-13T21:47:52.304Z,91.74
2023-01-13T21:50:20.959Z,91.52
2023-01-13T21:52:48.502Z,91.59
2023-01-13T21:55:25.706Z,91.67
2023-01-13T21:58:03.731Z,91.63
2023-01-13T22:00:31.321Z,91.43
2023-01-13T22:03:01.119Z,90.99
2023-01-13T22:05:28.112Z,90.85
2023-01-13T22:07:55.045Z,90.97
2023-01-13T22:10:23.475Z,90.86
2023-01-13T22:12:54.679Z,90.86
2023-01-13T22:15:22.484Z,90.69
2023-01-13T22:17:53.212Z,90.40
2023-01-13T22:20:21.755Z,90.44
2023-01-13T22:22:48.889Z,90.35
2023-01-13T22:25:16.421Z,90.33
2023-01-13T22:27:44.874Z,90.29
2023-01-13T22:30:18.202Z,89.99
2023-01-13T22:32:45.999Z,89.67
2023-01-13T22:35:13.751Z,89.31
2023-01-13T22:37:40.837Z,89.04
2023-01-13T22:40:08.918Z,89.21
2023-01-13T22:42:40.065Z,89.48
2023-01-13T22:45:08.517Z,89.30
2023-01-13T22:47:35.786Z,89.15
2023-01-13T22:50:02.896Z,89.08
2023-01-13T22:52:30.462Z,89.08
2023-01-13T22:54:57.912Z,89.21
2023-01-13T22:57:24.811Z,89.31
2023-01-13T22:59:51.787Z,89.36
2023-01-13T23:02:18.659Z,89.31
2023-01-13T23:04:45.768Z,89.11
2023-01-13T23:07:12.685Z,89.07
2023-01-13T23:09:42.996Z,89.14
2023-01-13T23:12:09.896Z,88.99
2023-01-13T23:14:36.792Z,88.77
2023-01-13T23:17:04.541Z,88.65
2023-01-13T23:19:31.533Z,88.51
2023-01-13T23:21:58.525Z,88.34
2023-01-13T23:24:26.155Z,88.01
2023-01-13T23:26:53.277Z,87.95
2023-01-13T23:29:20.278Z,87.92
2023-01-13T23:31:47.342Z,87.43
2023-01-13T23:34:14.185Z,87.14
2023-01-13T23:36:43.531Z,86.96
2023-01-13T23:39:10.509Z,87.02
2023-01-13T23:41:37.511Z,87.17
2023-01-13T23:44:04.465Z,87.03
2023-01-13T23:46:32.856Z,86.91
2023-01-13T23:48:59.865Z,86.94
2023-01-13T23:51:27.735Z,86.93
2023-01-13T23:53:54.620Z,87.06
2023-01-13T23:56:23.730Z,87.08
2023-01-13T23:58:50.793Z,86.99
